createdAt,value
2019-02-05T00:00:32.348Z,101288.05
2019-02-05T00:03:13.842Z,101289.30
2019-02-05T00:05:53.617Z,101295.36
2019-02-05T00:08:32.821Z,101291.95
2019-02-05T00:11:12.226Z,101289.20
2019-02-05T00:13:51.285Z,101289.38
2019-02-05T00:16:30.586Z,101286.70
2019-02-05T00:19:10.161Z,101282.28
2019-02-05T00:21:49.549Z,101280.36
2019-02-05T00:24:31.118Z,101276.51
2019-02-05T00:27:12.208Z,101280.54
2019-02-05T00:29:51.387Z,101277.01
2019-02-05T00:32:30.649Z,101272.89
2019-02-05T00:35:11.835Z,101266.73
2019-02-05T00:37:51.187Z,101265.52
2019-02-05T00:40:31.493Z,101269.50
2019-02-05T00:43:10.960Z,101267.84
2019-02-05T00:45:52.606Z,101273.13
2019-02-05T00:48:31.979Z,101275.33
2019-02-05T00:51:11.500Z,101266.26
2019-02-05T00:53:50.778Z,101264.34
2019-02-05T00:56:31.238Z,101265.46
2019-02-05T00:59:11.683Z,101272.95
2019-02-05T01:01:50.892Z,101271.06
2019-02-05T01:04:30.041Z,101278.08
2019-02-05T01:07:09.154Z,101281.89
2019-02-05T01:09:48.314Z,101285.34
2019-02-05T01:12:27.541Z,101278.84
2019-02-05T01:15:08.706Z,101275.11
2019-02-05T01:17:47.878Z,101267.61
2019-02-05T01:20:29.178Z,101252.25
2019-02-05T01:23:08.434Z,101244.64
2019-02-05T01:25:47.767Z,101243.94
2019-02-05T01:28:27.135Z,101239.38
2019-02-05T01:31:06.325Z,101238.70
2019-02-05T01:33:45.591Z,101237.86
2019-02-05T01:36:24.750Z,101232.79
2019-02-05T01:39:05.511Z,101233.17
2019-02-05T01:41:45.393Z,101228.91
2019-02-05T01:44:24.783Z,101230.42
2019-02-05T01:47:05.376Z,101225.11
2019-02-05T01:49:45.581Z,101226.87
2019-02-05T01:52:25.069Z,101236.27
2019-02-05T01:55:04.799Z,101232.53
2019-02-05T01:57:45.545Z,101245.91
2019-02-05T02:00:34.918Z,101233.64
2019-02-05T02:03:14.153Z,101224.91
2019-02-05T02:05:55.537Z,101232.05
2019-02-05T02:08:48.693Z,101219.99
2019-02-05T02:11:28.957Z,101219.77
2019-02-05T02:14:08.512Z,101211.31
2019-02-05T02:16:47.859Z,101219.39
2019-02-05T02:19:32.286Z,101220.28
2019-02-05T02:22:11.539Z,101222.77
2019-02-05T02:24:50.731Z,101218.67
2019-02-05T02:27:30.032Z,101219.36
2019-02-05T02:30:21.301Z,101217.39
2019-02-05T02:33:00.603Z,101216.18
2019-02-05T02:35:39.912Z,101218.95
2019-02-05T02:38:19.172Z,101208.58
2019-02-05T02:40:58.342Z,101205.59
2019-02-05T02:43:37.695Z,101201.37
2019-02-05T02:46:16.913Z,101188.30
2019-02-05T02:48:56.252Z,101184.06
2019-02-05T02:51:35.476Z,101187.89
2019-02-05T02:54:14.629Z,101189.45
2019-02-05T02:57:04.501Z,101191.45
2019-02-05T02:59:34.711Z,101193.22
2019-02-05T03:02:14.510Z,101192.06
2019-02-05T03:04:53.825Z,101185.48
2019-02-05T03:07:32.905Z,101188.89
2019-02-05T03:10:20.174Z,101189.53
2019-02-05T03:13:00.218Z,101196.95
2019-02-05T03:15:39.541Z,101196.88
2019-02-05T03:18:32.899Z,101195.61
2019-02-05T03:21:12.235Z,101200.59
2019-02-05T03:23:51.418Z,101191.94
2019-02-05T03:26:32.392Z,101182.50
2019-02-05T03:29:11.703Z,101183.48
2019-02-05T03:31:51.091Z,101178.84
2019-02-05T03:34:40.930Z,101188.44
2019-02-05T03:37:22.760Z,101186.50
2019-02-05T03:40:11.587Z,101185.19
2019-02-05T03:42:50.991Z,101189.91
2019-02-05T03:45:32.901Z,101192.87
2019-02-05T03:48:14.331Z,101208.70
2019-02-05T03:51:27.429Z,101210.73
2019-02-05T03:55:02.885Z,101199.94
2019-02-05T03:58:22.508Z,101190.95
2019-02-05T04:01:45.111Z,101191.31
2019-02-05T04:05:32.417Z,101193.56
2019-02-05T04:08:40.035Z,101183.14
2019-02-05T04:11:48.045Z,101193.59
2019-02-05T04:15:07.983Z,101192.21
2019-02-05T04:18:45.397Z,101193.05
2019-02-05T04:21:54.776Z,101202.98
2019-02-05T04:24:59.716Z,101200.09
2019-02-05T04:28:15.897Z,101203.97
2019-02-05T04:31:52.162Z,101215.73
2019-02-05T04:35:27.051Z,101210.41
2019-02-05T04:38:56.951Z,101207.22
2019-02-05T04:42:54.621Z,101199.37
2019-02-05T04:46:24.228Z,101204.22
2019-02-05T04:49:50.405Z,101201.19
2019-02-05T04:53:16.231Z,101197.78
2019-02-05T04:56:41.193Z,101197.30
2019-02-05T05:00:06.080Z,101206.59
2019-02-05T05:03:25.281Z,101212.63
2019-02-05T05:06:49.189Z,101223.33
2019-02-05T05:09:50.893Z,101227.71
2019-02-05T05:12:30.928Z,101227.41
2019-02-05T05:15:13.705Z,101232.26
2019-02-05T05:17:52.815Z,101231.95
2019-02-05T05:20:32.640Z,101237.56
2019-02-05T05:23:11.928Z,101239.09
2019-02-05T05:25:51.287Z,101242.88
2019-02-05T05:28:30.465Z,101236.83
2019-02-05T05:31:10.911Z,101242.81
2019-02-05T05:33:50.626Z,101242.36
2019-02-05T05:36:29.888Z,101239.12
2019-02-05T05:39:10.347Z,101250.63
2019-02-05T05:41:49.535Z,101248.20
2019-02-05T05:44:28.645Z,101249.31
2019-02-05T05:47:11.873Z,101248.06
2019-02-05T05:49:51.077Z,101247.83
2019-02-05T05:52:30.297Z,101242.43
2019-02-05T05:55:09.645Z,101235.25
2019-02-05T05:57:50.908Z,101240.83
2019-02-05T06:00:30.094Z,101243.77
2019-02-05T06:03:10.378Z,101240.56
2019-02-05T06:05:50.057Z,101240.52
2019-02-05T06:08:29.338Z,101236.39
2019-02-05T06:11:08.558Z,101229.02
2019-02-05T06:13:48.360Z,101226.72
2019-02-05T06:16:27.572Z,101221.58
2019-02-05T06:19:09.058Z,101218.44
2019-02-05T06:21:48.224Z,101216.27
2019-02-05T06:24:27.423Z,101225.88
2019-02-05T06:27:06.704Z,101218.59
2019-02-05T06:29:45.906Z,101213.77
2019-02-05T06:32:27.197Z,101228.34
2019-02-05T06:35:07.474Z,101228.59
2019-02-05T06:37:46.767Z,101229.16
2019-02-05T06:40:26.188Z,101232.51
2019-02-05T06:43:05.827Z,101225.35
2019-02-05T06:45:45.081Z,101220.87
2019-02-05T06:48:24.877Z,101218.11
2019-02-05T06:51:04.156Z,101218.64
2019-02-05T06:53:43.477Z,101225.75
2019-02-05T06:56:24.290Z,101225.75
2019-02-05T06:59:03.514Z,101215.47
2019-02-05T07:01:42.755Z,101231.02
2019-02-05T07:04:22.270Z,101233.03
2019-02-05T07:07:01.831Z,101227.71
2019-02-05T07:09:41.106Z,101227.05
2019-02-05T07:12:20.492Z,101216.39
2019-02-05T07:15:00.377Z,101215.90
2019-02-05T07:17:49.251Z,101220.53
2019-02-05T07:20:20.669Z,101215.92
2019-02-05T07:22:59.982Z,101217.84
2019-02-05T07:25:39.166Z,101213.79
2019-02-05T07:28:18.234Z,101224.17
2019-02-05T07:30:57.433Z,101223.58
2019-02-05T07:33:36.590Z,101220.66
2019-02-05T07:36:15.958Z,101224.08
2019-02-05T07:38:55.102Z,101227.50
2019-02-05T07:41:34.389Z,101232.17
2019-02-05T07:44:13.559Z,101239.66
2019-02-05T07:46:54.903Z,101232.05
2019-02-05T07:49:35.140Z,101228.33
2019-02-05T07:52:14.472Z,101221.06
2019-02-05T07:54:53.713Z,101224.56
2019-02-05T07:57:32.893Z,101216.05
2019-02-05T08:00:19.545Z,101214.67
2019-02-05T08:02:58.797Z,101216.41
2019-02-05T08:05:37.951Z,101203.71
2019-02-05T08:08:17.239Z,101213.48
2019-02-05T08:10:57.998Z,101214.47
2019-02-05T08:13:37.285Z,101220.41
2019-02-05T08:16:16.649Z,101220.81
2019-02-05T08:18:56.356Z,101213.47
2019-02-05T08:21:37.619Z,101215.55
2019-02-05T08:24:16.884Z,101213.76
2019-02-05T08:26:56.688Z,101203.34
2019-02-05T08:29:36.422Z,101216.58
2019-02-05T08:32:16.044Z,101219.98
2019-02-05T08:34:55.314Z,101225.66
2019-02-05T08:37:34.386Z,101221.16
2019-02-05T08:40:18.989Z,101222.23
2019-02-05T08:42:58.258Z,101221.42
2019-02-05T08:45:38.541Z,101228.94
2019-02-05T08:48:18.417Z,101224.30
2019-02-05T08:50:58.316Z,101211.14
2019-02-05T08:53:37.665Z,101215.39
2019-02-05T08:56:16.814Z,101221.20
2019-02-05T08:58:56.472Z,101224.25
2019-02-05T09:01:36.321Z,101222.73
2019-02-05T09:04:15.390Z,101218.64
2019-02-05T09:06:55.151Z,101205.91
2019-02-05T09:09:34.979Z,101210.77
2019-02-05T09:12:17.951Z,101219.08
2019-02-05T09:14:56.604Z,101213.45
2019-02-05T09:17:36.377Z,101211.09
2019-02-05T09:20:17.924Z,101216.83
2019-02-05T09:22:57.779Z,101215.09
2019-02-05T09:25:37.681Z,101218.56
2019-02-05T09:28:17.608Z,101223.19
2019-02-05T09:30:57.256Z,101225.55
2019-02-05T09:33:36.961Z,101228.40
2019-02-05T09:36:16.671Z,101232.55
2019-02-05T09:38:56.459Z,101236.55
2019-02-05T09:41:36.612Z,101237.45
2019-02-05T09:44:16.437Z,101244.23
2019-02-05T09:46:56.606Z,101237.20
2019-02-05T09:49:38.033Z,101248.07
2019-02-05T09:52:19.232Z,101247.91
2019-02-05T09:54:59.677Z,101253.48
2019-02-05T09:57:39.458Z,101249.34
2019-02-05T10:00:22.999Z,101242.42
2019-02-05T10:03:02.898Z,101248.84
2019-02-05T10:05:42.857Z,101256.19
2019-02-05T10:08:22.697Z,101251.75
2019-02-05T10:11:02.569Z,101249.53
2019-02-05T10:13:42.296Z,101258.39
2019-02-05T10:16:22.231Z,101255.06
2019-02-05T10:19:02.078Z,101254.28
2019-02-05T10:21:42.452Z,101251.20
2019-02-05T10:24:22.232Z,101260.61
2019-02-05T10:27:02.107Z,101256.02
2019-02-05T10:29:41.896Z,101256.15
2019-02-05T10:32:21.706Z,101252.48
2019-02-05T10:35:01.524Z,101252.89
2019-02-05T10:37:41.400Z,101250.59
2019-02-05T10:40:22.374Z,101249.44
2019-02-05T10:43:03.387Z,101249.51
2019-02-05T10:45:43.199Z,101242.91
2019-02-05T10:48:23.156Z,101241.87
2019-02-05T10:51:02.949Z,101233.02
2019-02-05T10:53:42.854Z,101236.14
2019-02-05T10:56:23.061Z,101233.55
2019-02-05T10:59:02.943Z,101229.84
2019-02-05T11:01:42.801Z,101233.04
2019-02-05T11:04:22.809Z,101234.97
2019-02-05T11:07:06.496Z,101228.06
2019-02-05T11:09:46.501Z,101234.69
2019-02-05T11:12:26.468Z,101238.73
2019-02-05T11:15:10.001Z,101239.25
2019-02-05T11:17:49.926Z,101236.06
2019-02-05T11:20:29.896Z,101236.39
2019-02-05T11:23:09.973Z,101239.78
2019-02-05T11:25:49.859Z,101241.16
2019-02-05T11:28:29.724Z,101237.11
2019-02-05T11:31:09.440Z,101236.94
2019-02-05T11:33:49.236Z,101233.14
2019-02-05T11:36:30.828Z,101238.62
2019-02-05T11:39:16.520Z,101238.58
2019-02-05T11:41:56.564Z,101239.61
2019-02-05T11:44:36.249Z,101242.88
2019-02-05T11:47:16.627Z,101244.22
2019-02-05T11:49:56.379Z,101239.08
2019-02-05T11:52:36.187Z,101240.18
2019-02-05T11:55:18.469Z,101238.33
2019-02-05T11:57:58.295Z,101248.00
2019-02-05T12:00:47.075Z,101246.33
2019-02-05T12:03:27.226Z,101237.64
2019-02-05T12:06:08.181Z,101239.24
2019-02-05T12:08:47.908Z,101240.67
2019-02-05T12:11:27.651Z,101231.97
2019-02-05T12:14:07.643Z,101236.88
2019-02-05T12:16:48.678Z,101231.75
2019-02-05T12:19:28.426Z,101226.77
2019-02-05T12:22:08.110Z,101226.86
2019-02-05T12:24:47.934Z,101225.89
2019-02-05T12:27:28.066Z,101222.63
2019-02-05T12:30:17.510Z,101221.84
2019-02-05T12:32:57.601Z,101223.16
2019-02-05T12:35:37.446Z,101216.91
2019-02-05T12:38:20.995Z,101220.09
2019-02-05T12:41:00.848Z,101216.02
2019-02-05T12:43:40.981Z,101216.59
2019-02-05T12:46:21.413Z,101214.80
2019-02-05T12:49:01.218Z,101212.45
2019-02-05T12:51:41.004Z,101218.55
2019-02-05T12:54:21.324Z,101210.56
2019-02-05T12:57:01.394Z,101216.30
2019-02-05T12:59:41.251Z,101215.55
2019-02-05T13:02:21.036Z,101205.14
2019-02-05T13:05:00.771Z,101212.87
2019-02-05T13:07:41.703Z,101211.02
2019-02-05T13:10:24.851Z,101212.78
2019-02-05T13:13:05.817Z,101209.18
2019-02-05T13:15:45.587Z,101205.80
2019-02-05T13:18:25.469Z,101204.02
2019-02-05T13:21:06.280Z,101204.17
2019-02-05T13:23:46.164Z,101206.07
2019-02-05T13:26:28.223Z,101204.14
2019-02-05T13:29:12.550Z,101202.74
2019-02-05T13:31:52.270Z,101196.52
2019-02-05T13:34:32.249Z,101204.70
2019-02-05T13:37:12.115Z,101202.63
2019-02-05T13:39:52.494Z,101199.39
2019-02-05T13:42:32.295Z,101200.05
2019-02-05T13:45:13.097Z,101199.20
2019-02-05T13:47:52.906Z,101200.88
2019-02-05T13:50:33.981Z,101205.62
2019-02-05T13:53:13.927Z,101198.64
2019-02-05T13:55:53.820Z,101203.20
2019-02-05T13:58:33.480Z,101201.69
2019-02-05T14:01:20.115Z,101209.94
2019-02-05T14:03:54.993Z,101214.52
2019-02-05T14:06:34.756Z,101212.57
2019-02-05T14:09:14.920Z,101212.61
2019-02-05T14:11:54.680Z,101216.88
2019-02-05T14:14:34.506Z,101222.50
2019-02-05T14:17:14.256Z,101221.53
2019-02-05T14:19:54.132Z,101220.84
2019-02-05T14:22:33.901Z,101220.56
2019-02-05T14:25:14.369Z,101222.31
2019-02-05T14:27:54.236Z,101214.34
2019-02-05T14:30:40.822Z,101225.57
2019-02-05T14:33:20.664Z,101232.48
2019-02-05T14:36:00.954Z,101236.63
2019-02-05T14:38:40.856Z,101234.95
2019-02-05T14:41:21.186Z,101236.20
2019-02-05T14:44:00.964Z,101240.73
2019-02-05T14:46:41.670Z,101240.89
2019-02-05T14:49:23.273Z,101248.67
2019-02-05T14:52:03.177Z,101241.03
2019-02-05T14:54:42.984Z,101243.69
2019-02-05T14:57:23.664Z,101247.55
2019-02-05T15:00:03.646Z,101247.51
2019-02-05T15:02:44.762Z,101245.97
2019-02-05T15:05:26.983Z,101244.60
2019-02-05T15:08:10.189Z,101242.84
2019-02-05T15:10:50.134Z,101242.16
2019-02-05T15:13:29.909Z,101252.18
2019-02-05T15:16:10.750Z,101255.20
2019-02-05T15:18:50.556Z,101258.23
2019-02-05T15:21:30.516Z,101257.48
2019-02-05T15:24:10.448Z,101259.70
2019-02-05T15:26:50.518Z,101260.98
2019-02-05T15:29:30.612Z,101261.91
2019-02-05T15:32:13.960Z,101263.78
2019-02-05T15:34:55.982Z,101264.49
2019-02-05T15:37:38.169Z,101264.02
2019-02-05T15:40:18.897Z,101263.70
2019-02-05T15:42:59.197Z,101262.03
2019-02-05T15:45:38.947Z,101266.47
2019-02-05T15:48:19.030Z,101272.27
2019-02-05T15:50:58.819Z,101270.48
2019-02-05T15:53:39.029Z,101276.25
2019-02-05T15:56:19.600Z,101277.66
2019-02-05T15:58:59.344Z,101283.95
2019-02-05T16:01:39.643Z,101282.00
2019-02-05T16:04:22.563Z,101279.17
2019-02-05T16:07:02.291Z,101284.80
2019-02-05T16:10:02.714Z,101286.47
2019-02-05T16:12:42.547Z,101294.34
2019-02-05T16:15:22.446Z,101290.78
2019-02-05T16:18:02.252Z,101297.38
2019-02-05T16:20:42.201Z,101298.45
2019-02-05T16:23:22.090Z,101296.55
2019-02-05T16:26:02.145Z,101301.48
2019-02-05T16:28:41.882Z,101299.55
2019-02-05T16:31:22.048Z,101298.66
2019-02-05T16:34:01.879Z,101297.55
2019-02-05T16:36:41.640Z,101303.28
2019-02-05T16:39:21.440Z,101310.18
2019-02-05T16:42:01.260Z,101313.00
2019-02-05T16:44:43.386Z,101310.50
2019-02-05T16:47:27.166Z,101313.56
2019-02-05T16:50:12.707Z,101318.95
2019-02-05T16:52:52.875Z,101319.23
2019-02-05T16:55:32.828Z,101320.11
2019-02-05T16:58:12.789Z,101319.70
2019-02-05T17:00:52.509Z,101328.48
2019-02-05T17:03:32.242Z,101331.87
2019-02-05T17:06:12.102Z,101334.43
2019-02-05T17:08:51.895Z,101336.97
2019-02-05T17:11:31.685Z,101342.41
2019-02-05T17:14:11.508Z,101342.88
2019-02-05T17:16:51.263Z,101344.52
2019-02-05T17:19:31.879Z,101350.69
2019-02-05T17:22:12.126Z,101352.94
2019-02-05T17:24:54.630Z,101348.70
2019-02-05T17:27:35.337Z,101350.27
2019-02-05T17:30:20.160Z,101356.63
2019-02-05T17:33:01.874Z,101353.73
2019-02-05T17:35:42.319Z,101354.25
2019-02-05T17:38:22.233Z,101352.84
2019-02-05T17:41:03.367Z,101350.71
2019-02-05T17:43:44.344Z,101351.19
2019-02-05T17:46:24.379Z,101352.85
2019-02-05T17:49:04.319Z,101353.84
2019-02-05T17:51:44.235Z,101347.88
2019-02-05T17:54:23.466Z,101345.10
2019-02-05T17:57:03.419Z,101344.37
2019-02-05T17:59:43.110Z,101345.47
2019-02-05T18:02:24.057Z,101353.20
2019-02-05T18:05:05.625Z,101349.80
2019-02-05T18:07:45.637Z,101355.83
2019-02-05T18:10:26.972Z,101357.30
2019-02-05T18:13:07.145Z,101360.37
2019-02-05T18:15:46.977Z,101360.91
2019-02-05T18:18:27.547Z,101362.05
2019-02-05T18:21:10.125Z,101366.47
2019-02-05T18:23:50.088Z,101374.80
2019-02-05T18:26:31.631Z,101377.53
2019-02-05T18:29:12.098Z,101374.45
2019-02-05T18:31:52.053Z,101367.55
2019-02-05T18:34:32.485Z,101367.05
2019-02-05T18:37:12.417Z,101373.45
2019-02-05T18:39:52.185Z,101373.83
2019-02-05T18:42:32.723Z,101375.72
2019-02-05T18:45:15.304Z,101372.62
2019-02-05T18:47:55.336Z,101377.68
2019-02-05T18:50:37.809Z,101386.30
2019-02-05T18:53:17.646Z,101382.48
2019-02-05T18:55:57.740Z,101384.33
2019-02-05T18:58:38.579Z,101379.65
2019-02-05T19:01:18.681Z,101371.95
2019-02-05T19:03:58.540Z,101375.80
2019-02-05T19:06:40.281Z,101373.70
2019-02-05T19:09:20.269Z,101381.88
2019-02-05T19:12:04.171Z,101375.95
2019-02-05T19:14:42.805Z,101378.53
2019-02-05T19:17:23.196Z,101379.45
2019-02-05T19:20:03.392Z,101384.75
2019-02-05T19:22:44.184Z,101382.12
2019-02-05T19:25:53.737Z,101378.30
2019-02-05T19:28:36.818Z,101381.17
2019-02-05T19:31:38.942Z,101385.34
2019-02-05T19:34:19.628Z,101383.30
2019-02-05T19:36:59.866Z,101387.19
2019-02-05T19:39:40.107Z,101392.58
2019-02-05T19:42:20.570Z,101395.03
2019-02-05T19:45:28.662Z,101393.89
2019-02-05T19:48:13.358Z,101403.30
2019-02-05T19:50:52.843Z,101400.30
2019-02-05T19:53:32.808Z,101399.98
2019-02-05T19:56:14.945Z,101402.86
2019-02-05T19:58:55.290Z,101400.39
2019-02-05T20:01:36.038Z,101394.05
2019-02-05T20:04:16.088Z,101400.61
2019-02-05T20:06:56.269Z,101400.70
2019-02-05T20:09:36.503Z,101400.23
2019-02-05T20:12:16.231Z,101396.87
2019-02-05T20:14:59.311Z,101410.19
2019-02-05T20:17:39.182Z,101402.75
2019-02-05T20:20:19.311Z,101409.74
2019-02-05T20:23:02.600Z,101406.83
2019-02-05T20:25:43.008Z,101409.31
2019-02-05T20:28:24.947Z,101408.21
2019-02-05T20:31:05.901Z,101418.09
2019-02-05T20:33:49.951Z,101417.69
2019-02-05T20:36:29.117Z,101420.02
2019-02-05T20:39:17.238Z,101423.84
2019-02-05T20:41:57.468Z,101413.25
2019-02-05T20:44:37.480Z,101417.13
2019-02-05T20:47:18.903Z,101415.34
2019-02-05T20:49:59.236Z,101420.86
2019-02-05T20:52:39.695Z,101416.52
2019-02-05T20:55:20.883Z,101420.86
2019-02-05T20:58:00.899Z,101416.94
2019-02-05T21:00:42.005Z,101417.77
2019-02-05T21:03:22.160Z,101419.06
2019-02-05T21:06:01.821Z,101423.37
2019-02-05T21:08:41.853Z,101417.02
2019-02-05T21:11:21.766Z,101416.31
2019-02-05T21:14:01.659Z,101416.75
2019-02-05T21:16:41.834Z,101415.23
2019-02-05T21:19:22.396Z,101412.98
2019-02-05T21:22:02.642Z,101412.02
2019-02-05T21:24:42.671Z,101408.73
2019-02-05T21:27:22.503Z,101411.42
2019-02-05T21:30:02.402Z,101409.75
2019-02-05T21:32:42.338Z,101410.14
2019-02-05T21:35:26.088Z,101415.36
2019-02-05T21:38:07.421Z,101411.63
2019-02-05T21:40:47.352Z,101411.77
2019-02-05T21:43:30.117Z,101414.19
2019-02-05T21:46:10.159Z,101418.06
2019-02-05T21:48:50.225Z,101421.23
2019-02-05T21:51:40.587Z,101417.00
2019-02-05T21:54:13.066Z,101415.75
2019-02-05T21:56:56.109Z,101417.39
2019-02-05T21:59:35.356Z,101419.02
2019-02-05T22:02:15.397Z,101418.02
2019-02-05T22:04:54.744Z,101419.22
2019-02-05T22:07:34.684Z,101421.59
2019-02-05T22:10:14.955Z,101414.80
2019-02-05T22:12:58.624Z,101412.29
2019-02-05T22:15:38.815Z,101413.28
2019-02-05T22:18:19.585Z,101412.64
2019-02-05T22:20:59.400Z,101414.05
2019-02-05T22:23:39.218Z,101413.50
2019-02-05T22:26:19.705Z,101410.12
2019-02-05T22:28:59.404Z,101405.69
2019-02-05T22:31:39.210Z,101401.51
2019-02-05T22:34:19.383Z,101404.70
2019-02-05T22:36:59.091Z,101407.37
2019-02-05T22:39:40.749Z,101401.78
2019-02-05T22:42:22.229Z,101406.16
2019-02-05T22:45:02.313Z,101403.89
2019-02-05T22:47:42.555Z,101409.75
2019-02-05T22:50:28.716Z,101411.50
2019-02-05T22:53:08.688Z,101412.72
2019-02-05T22:55:48.456Z,101412.96
2019-02-05T22:58:28.376Z,101408.15
2019-02-05T23:01:38.380Z,101412.05
2019-02-05T23:05:08.815Z,101415.45
2019-02-05T23:07:48.503Z,101412.87
2019-02-05T23:11:26.653Z,101421.61
2019-02-05T23:14:07.070Z,101420.29
2019-02-05T23:16:47.459Z,101423.62
2019-02-05T23:19:27.297Z,101422.95
2019-02-05T23:22:07.696Z,101422.14
2019-02-05T23:24:47.453Z,101423.23
2019-02-05T23:27:28.176Z,101423.29
2019-02-05T23:30:15.980Z,101424.16
2019-02-05T23:32:55.369Z,101419.38
2019-02-05T23:35:35.109Z,101420.67
2019-02-05T23:38:14.310Z,101427.05
2019-02-05T23:40:55.184Z,101426.25
2019-02-05T23:43:34.319Z,101426.09
2019-02-05T23:46:15.289Z,101429.40
2019-02-05T23:48:55.115Z,101425.19
2019-02-05T23:51:34.467Z,101428.85
2019-02-05T23:54:13.612Z,101427.95
2019-02-05T23:56:52.922Z,101425.00
2019-02-05T23:59:32.651Z,101431.25
